Time;durP1;ratioP1;P1;durP2;ratioP2;P2;SDS_P1;SDS_P2;PMS_P1;PMS_P2;Temp;Humidity;BMP_temperature;BMP_pressure;BME280_temperature;BME280_humidity;BME280_pressure;Samples;Min_cycle;Max_cycle;Signal;HPM_P1;HPM_P2
2023/11/04 00:02:04;;;;;;;;;;;22.90;49.40;;;;;;5102898;28;19928;-57
2023/11/04 00:04:32;;;;;;;;;;;22.90;49.40;;;;;;5100940;28;20293;-57
2023/11/04 00:07:00;;;;;;;;;;;22.80;49.30;;;;;;5112123;28;20378;-58
2023/11/04 00:09:27;;;;;;;;;;;22.90;49.40;;;;;;5119236;27;19935;-57
2023/11/04 00:12:12;;;;;;;;;;;22.90;49.40;;;;;;5111395;28;19939;-59
2023/11/04 00:14:39;;;;;;;;;;;22.80;49.30;;;;;;5111929;28;19927;-58
2023/11/04 00:17:06;;;;;;;;;;;22.90;49.40;;;;;;5112108;27;19969;-58
2023/11/04 00:19:33;;;;;;;;;;;22.80;49.30;;;;;;5106194;28;19923;-58
2023/11/04 00:22:01;;;;;;;;;;;22.80;49.30;;;;;;5108023;28;20011;-57
2023/11/04 00:24:28;;;;;;;;;;;22.80;49.40;;;;;;5111244;28;19927;-57
2023/11/04 00:26:55;;;;;;;;;;;22.80;49.40;;;;;;5113530;28;19930;-58
2023/11/04 00:29:22;;;;;;;;;;;22.80;50.00;;;;;;5112733;28;19923;-59
2023/11/04 00:31:49;;;;;;;;;;;22.80;49.40;;;;;;5112363;28;19927;-59
2023/11/04 00:34:16;;;;;;;;;;;22.80;49.40;;;;;;5115090;27;19927;-59
2023/11/04 00:36:43;;;;;;;;;;;22.90;49.50;;;;;;5112659;28;19984;-58
2023/11/04 00:39:13;;;;;;;;;;;22.80;49.40;;;;;;5111060;28;19924;-58
2023/11/04 00:41:40;;;;;;;;;;;22.80;49.40;;;;;;5112226;28;20394;-59
2023/11/04 00:44:07;;;;;;;;;;;22.80;49.40;;;;;;5112009;28;19989;-59
2023/11/04 00:46:34;;;;;;;;;;;22.80;49.30;;;;;;5106043;28;20411;-59
2023/11/04 00:49:03;;;;;;;;;;;22.80;49.30;;;;;;5112824;27;19986;-59
2023/11/04 00:51:33;;;;;;;;;;;22.80;49.20;;;;;;5108845;28;19930;-59
2023/11/04 00:54:00;;;;;;;;;;;22.80;49.80;;;;;;5111677;28;19971;-59
2023/11/04 00:56:27;;;;;;;;;;;22.80;49.20;;;;;;5111543;28;19924;-58
2023/11/04 00:58:54;;;;;;;;;;;22.90;49.90;;;;;;5110994;28;20416;-59
2023/11/04 01:01:21;;;;;;;;;;;22.80;49.20;;;;;;5111881;28;20017;-58
2023/11/04 01:03:48;;;;;;;;;;;22.80;49.30;;;;;;5111746;28;20014;-59
2023/11/04 01:06:16;;;;;;;;;;;22.90;49.30;;;;;;5108533;28;19984;-58
2023/11/04 01:08:44;;;;;;;;;;;22.80;49.20;;;;;;5112224;28;19974;-58
2023/11/04 01:11:11;;;;;;;;;;;22.80;49.30;;;;;;5110600;28;19973;-59
2023/11/04 01:13:39;;;;;;;;;;;22.80;49.20;;;;;;5112384;28;19928;-59
2023/11/04 01:16:06;;;;;;;;;;;22.80;49.20;;;;;;5108096;28;19924;-59
2023/11/04 01:18:36;;;;;;;;;;;22.80;49.30;;;;;;5109092;28;19963;-58
2023/11/04 01:21:03;;;;;;;;;;;22.80;49.30;;;;;;5093547;28;19924;-59
2023/11/04 01:23:30;;;;;;;;;;;22.80;49.30;;;;;;5111604;28;19955;-57
2023/11/04 01:25:57;;;;;;;;;;;22.80;49.30;;;;;;5112625;28;19923;-59
2023/11/04 01:28:24;;;;;;;;;;;22.80;49.20;;;;;;5108992;28;19936;-58
2023/11/04 01:30:51;;;;;;;;;;;22.80;49.20;;;;;;5106380;28;20368;-59
2023/11/04 01:33:18;;;;;;;;;;;22.80;49.20;;;;;;5115844;28;19923;-59
2023/11/04 01:35:46;;;;;;;;;;;22.80;49.30;;;;;;5116779;28;20023;-57
2023/11/04 01:38:13;;;;;;;;;;;22.80;49.30;;;;;;5112397;27;19967;-56
2023/11/04 01:40:40;;;;;;;;;;;22.80;49.30;;;;;;5114557;28;19991;-57
2023/11/04 01:43:08;;;;;;;;;;;22.80;49.20;;;;;;5113214;28;20035;-57
2023/11/04 01:45:35;;;;;;;;;;;22.80;49.20;;;;;;5114414;28;20013;-58
2023/11/04 01:48:02;;;;;;;;;;;22.80;49.20;;;;;;5128830;27;19948;-57
2023/11/04 01:50:29;;;;;;;;;;;22.80;49.30;;;;;;5135276;27;19929;-58
2023/11/04 01:52:56;;;;;;;;;;;22.80;49.30;;;;;;5118844;27;19924;-57
2023/11/04 01:55:23;;;;;;;;;;;22.80;49.30;;;;;;5108803;28;19963;-57
2023/11/04 01:57:50;;;;;;;;;;;22.80;49.30;;;;;;5116205;28;20287;-59
2023/11/04 02:00:17;;;;;;;;;;;22.80;49.30;;;;;;5108065;28;20030;-58
2023/11/04 02:02:45;;;;;;;;;;;22.80;49.30;;;;;;5111149;28;19977;-58
2023/11/04 02:05:12;;;;;;;;;;;22.80;49.30;;;;;;5100970;28;20565;-58
2023/11/04 02:07:39;;;;;;;;;;;22.80;49.30;;;;;;5116867;28;19923;-58
2023/11/04 02:10:06;;;;;;;;;;;22.80;49.30;;;;;;5116119;28;19924;-58
2023/11/04 02:12:33;;;;;;;;;;;22.80;49.30;;;;;;5116763;28;20367;-58
2023/11/04 02:15:00;;;;;;;;;;;22.80;49.20;;;;;;5098142;28;19931;-58
2023/11/04 02:17:28;;;;;;;;;;;22.80;49.10;;;;;;5116717;28;19924;-58
2023/11/04 02:20:00;;;;;;;;;;;22.80;49.10;;;;;;5116360;28;19923;-57
2023/11/04 02:22:27;;;;;;;;;;;22.80;49.10;;;;;;5116368;28;19973;-58
2023/11/04 02:24:55;;;;;;;;;;;22.80;49.10;;;;;;5116185;28;19928;-58
2023/11/04 02:27:22;;;;;;;;;;;22.80;49.10;;;;;;5098791;28;19963;-58
2023/11/04 02:29:49;;;;;;;;;;;22.80;49.10;;;;;;5115746;28;19927;-58
2023/11/04 02:32:16;;;;;;;;;;;22.80;49.10;;;;;;5115689;28;19954;-58
2023/11/04 02:34:43;;;;;;;;;;;22.80;49.10;;;;;;5115797;28;19924;-58
2023/11/04 02:37:11;;;;;;;;;;;22.80;49.10;;;;;;5115944;28;20465;-58
2023/11/04 02:39:37;;;;;;;;;;;22.80;49.60;;;;;;5116229;28;19978;-58
2023/11/04 02:42:04;;;;;;;;;;;22.80;49.10;;;;;;5114577;28;20394;-57
2023/11/04 02:44:31;;;;;;;;;;;22.80;49.10;;;;;;5115877;28;19928;-58
2023/11/04 02:46:59;;;;;;;;;;;22.80;49.10;;;;;;5116044;28;20572;-58
2023/11/04 02:49:26;;;;;;;;;;;22.80;49.10;;;;;;5116241;27;19923;-58
2023/11/04 02:51:53;;;;;;;;;;;22.80;49.10;;;;;;5115055;28;19978;-58
2023/11/04 02:54:34;;;;;;;;;;;22.80;49.10;;;;;;5115887;28;19959;-58
2023/11/04 02:57:02;;;;;;;;;;;22.80;49.10;;;;;;5115988;28;19928;-58
2023/11/04 02:59:30;;;;;;;;;;;22.70;49.10;;;;;;5114682;28;19923;-58
2023/11/04 03:01:57;;;;;;;;;;;22.70;49.10;;;;;;5115781;28;19955;-58
2023/11/04 03:04:25;;;;;;;;;;;22.70;49.10;;;;;;5115169;28;19971;-58
2023/11/04 03:06:53;;;;;;;;;;;22.80;49.10;;;;;;5115670;28;20362;-58
2023/11/04 03:09:20;;;;;;;;;;;22.80;49.10;;;;;;5115687;28;20022;-58
2023/11/04 03:11:47;;;;;;;;;;;22.80;49.10;;;;;;5115389;27;20368;-57
2023/11/04 03:14:14;;;;;;;;;;;22.70;49.10;;;;;;5115006;28;19923;-58
2023/11/04 03:16:42;;;;;;;;;;;22.70;49.60;;;;;;5115111;28;19959;-59
2023/11/04 03:19:09;;;;;;;;;;;22.70;49.10;;;;;;5115242;28;19924;-58
2023/11/04 03:21:36;;;;;;;;;;;22.70;49.10;;;;;;5114975;28;20355;-58
2023/11/04 03:24:03;;;;;;;;;;;22.70;49.20;;;;;;5113835;28;19946;-58
2023/11/04 03:26:30;;;;;;;;;;;22.80;49.20;;;;;;5115307;28;19924;-58
2023/11/04 03:28:57;;;;;;;;;;;22.80;49.20;;;;;;5115409;28;19924;-58
2023/11/04 03:31:24;;;;;;;;;;;22.70;49.20;;;;;;5115490;28;20417;-58
2023/11/04 03:33:51;;;;;;;;;;;22.80;49.20;;;;;;5114888;28;19931;-58
2023/11/04 03:36:18;;;;;;;;;;;22.70;49.20;;;;;;5114651;28;19977;-58
2023/11/04 03:38:45;;;;;;;;;;;22.70;49.20;;;;;;5113179;28;19967;-58
2023/11/04 03:41:12;;;;;;;;;;;22.80;49.20;;;;;;5114961;28;19974;-58
2023/11/04 03:43:39;;;;;;;;;;;22.80;49.10;;;;;;5114537;28;19973;-58
2023/11/04 03:46:07;;;;;;;;;;;22.80;49.10;;;;;;5114724;28;19923;-57
2023/11/04 03:48:34;;;;;;;;;;;22.80;49.00;;;;;;5114814;28;20290;-58
2023/11/04 03:51:01;;;;;;;;;;;22.80;49.00;;;;;;5114952;28;20338;-57
2023/11/04 03:53:28;;;;;;;;;;;22.80;49.00;;;;;;5114311;28;19993;-55
2023/11/04 03:55:55;;;;;;;;;;;22.70;49.10;;;;;;5114859;28;20065;-57
2023/11/04 03:58:22;;;;;;;;;;;22.80;49.00;;;;;;5109478;28;19935;-57
2023/11/04 04:00:49;;;;;;;;;;;22.70;49.00;;;;;;5093141;28;19924;-58
2023/11/04 04:03:16;;;;;;;;;;;22.70;49.00;;;;;;5094337;28;19946;-57
2023/11/04 04:05:44;;;;;;;;;;;22.80;49.10;;;;;;5076083;28;20014;-57
2023/11/04 04:08:11;;;;;;;;;;;22.70;49.00;;;;;;5093931;28;19975;-57
2023/11/04 04:10:38;;;;;;;;;;;22.70;49.00;;;;;;5094018;28;19998;-57
2023/11/04 04:13:05;;;;;;;;;;;22.70;49.00;;;;;;5094208;28;19924;-58
2023/11/04 04:15:32;;;;;;;;;;;22.80;49.10;;;;;;5113633;27;20333;-57
2023/11/04 04:17:59;;;;;;;;;;;22.70;49.00;;;;;;5134540;27;20390;-57
2023/11/04 04:20:27;;;;;;;;;;;22.70;49.00;;;;;;5134899;27;19924;-57
2023/11/04 04:22:54;;;;;;;;;;;22.70;49.10;;;;;;5134568;27;19937;-57
2023/11/04 04:25:21;;;;;;;;;;;22.70;49.00;;;;;;5134896;27;20337;-57
2023/11/04 04:27:48;;;;;;;;;;;22.70;49.10;;;;;;5134425;27;20053;-58
2023/11/04 04:30:16;;;;;;;;;;;22.70;49.10;;;;;;5134436;27;19935;-57
2023/11/04 04:32:43;;;;;;;;;;;22.70;49.10;;;;;;5134121;27;19927;-57
2023/11/04 04:35:10;;;;;;;;;;;22.70;49.10;;;;;;5133919;27;19930;-57
2023/11/04 04:37:38;;;;;;;;;;;22.70;49.10;;;;;;5134038;27;19927;-57
2023/11/04 04:40:05;;;;;;;;;;;22.70;49.00;;;;;;5134239;27;19969;-57
2023/11/04 04:42:32;;;;;;;;;;;22.70;48.90;;;;;;5134158;27;20399;-57
2023/11/04 04:44:59;;;;;;;;;;;22.70;48.70;;;;;;5134208;27;19930;-57
2023/11/04 04:47:26;;;;;;;;;;;22.80;48.50;;;;;;5134430;27;19969;-58
2023/11/04 04:49:53;;;;;;;;;;;22.80;48.50;;;;;;5134630;27;19963;-57
2023/11/04 04:52:20;;;;;;;;;;;22.80;48.30;;;;;;5134279;27;19923;-55
2023/11/04 04:54:47;;;;;;;;;;;22.80;48.20;;;;;;5134411;27;19976;-58
2023/11/04 04:57:14;;;;;;;;;;;22.80;48.20;;;;;;5133737;27;19931;-58
2023/11/04 04:59:41;;;;;;;;;;;22.80;48.10;;;;;;5133809;28;19954;-58
2023/11/04 05:02:08;;;;;;;;;;;22.80;48.60;;;;;;5133669;28;20375;-57
2023/11/04 05:04:35;;;;;;;;;;;22.80;48.00;;;;;;5135602;27;19923;-57
2023/11/04 05:07:02;;;;;;;;;;;22.80;48.00;;;;;;5138763;27;20325;-57
2023/11/04 05:09:29;;;;;;;;;;;22.70;47.90;;;;;;5138194;27;19970;-57
2023/11/04 05:11:57;;;;;;;;;;;22.70;47.90;;;;;;5138658;27;19924;-57
2023/11/04 05:14:24;;;;;;;;;;;22.70;48.20;;;;;;5138159;27;19923;-57
2023/11/04 05:16:51;;;;;;;;;;;22.70;47.90;;;;;;5137920;27;19923;-57
2023/11/04 05:19:19;;;;;;;;;;;22.70;47.90;;;;;;5136941;27;19968;-57
2023/11/04 05:21:47;;;;;;;;;;;22.70;47.90;;;;;;5115277;28;19924;-57
2023/11/04 05:24:14;;;;;;;;;;;22.60;47.80;;;;;;5099086;28;19934;-58
2023/11/04 05:26:41;;;;;;;;;;;22.60;47.90;;;;;;5117843;28;19924;-57
2023/11/04 05:29:11;;;;;;;;;;;22.60;47.90;;;;;;5117282;28;19974;-57
2023/11/04 05:31:38;;;;;;;;;;;22.60;47.90;;;;;;5117027;28;19967;-57
2023/11/04 05:34:06;;;;;;;;;;;22.60;47.90;;;;;;5117485;28;19928;-58
2023/11/04 05:36:33;;;;;;;;;;;22.60;47.90;;;;;;5117131;28;20405;-58
2023/11/04 05:39:00;;;;;;;;;;;22.60;47.90;;;;;;5117186;28;19923;-58
2023/11/04 05:41:27;;;;;;;;;;;22.60;47.90;;;;;;5117426;28;20402;-57
2023/11/04 05:43:54;;;;;;;;;;;22.60;47.90;;;;;;5116932;28;19963;-58
2023/11/04 05:46:21;;;;;;;;;;;22.60;47.90;;;;;;5116954;28;19924;-57
2023/11/04 05:48:49;;;;;;;;;;;22.60;47.80;;;;;;5116822;28;19924;-58
2023/11/04 05:51:24;;;;;;;;;;;22.60;47.80;;;;;;5116439;28;19924;-57
2023/11/04 05:53:51;;;;;;;;;;;22.60;47.70;;;;;;5116810;28;19977;-57
2023/11/04 05:56:19;;;;;;;;;;;22.60;47.70;;;;;;5116414;28;19928;-57
2023/11/04 05:58:47;;;;;;;;;;;22.60;47.60;;;;;;5117124;28;19924;-57
2023/11/04 06:01:14;;;;;;;;;;;22.60;47.60;;;;;;5116991;28;20015;-57
2023/11/04 06:03:42;;;;;;;;;;;22.60;47.60;;;;;;5098890;28;19924;-58
2023/11/04 06:06:09;;;;;;;;;;;22.60;47.60;;;;;;5116240;28;19931;-59
2023/11/04 06:08:36;;;;;;;;;;;22.60;47.50;;;;;;5116472;28;20019;-58
2023/11/04 06:11:03;;;;;;;;;;;22.60;47.40;;;;;;5099056;28;19923;-58
2023/11/04 06:13:30;;;;;;;;;;;22.60;47.40;;;;;;5116583;28;19924;-58
2023/11/04 06:15:57;;;;;;;;;;;22.70;47.40;;;;;;5116330;28;19927;-58
2023/11/04 06:18:25;;;;;;;;;;;22.60;47.30;;;;;;5116678;28;19963;-58
2023/11/04 06:20:52;;;;;;;;;;;22.70;47.40;;;;;;5116615;28;19967;-58
2023/11/04 06:23:19;;;;;;;;;;;22.70;47.30;;;;;;5115976;28;19970;-57
2023/11/04 06:25:46;;;;;;;;;;;22.70;47.20;;;;;;5116174;28;19930;-58
2023/11/04 06:28:13;;;;;;;;;;;22.70;47.20;;;;;;5116294;28;19924;-59
2023/11/04 06:30:40;;;;;;;;;;;22.70;47.20;;;;;;5116470;28;19978;-58
2023/11/04 06:33:07;;;;;;;;;;;22.70;47.10;;;;;;5116094;28;20379;-58
2023/11/04 06:35:34;;;;;;;;;;;22.70;47.10;;;;;;5116120;28;19928;-57
2023/11/04 06:38:01;;;;;;;;;;;22.70;47.10;;;;;;5115711;28;20283;-57
2023/11/04 06:40:29;;;;;;;;;;;22.70;47.00;;;;;;5116108;28;19924;-57
2023/11/04 06:42:56;;;;;;;;;;;22.70;46.90;;;;;;5115843;28;20334;-57
2023/11/04 06:45:23;;;;;;;;;;;22.70;46.90;;;;;;5097751;28;19924;-58
2023/11/04 06:47:50;;;;;;;;;;;22.70;46.90;;;;;;5115587;28;19944;-57
2023/11/04 06:50:17;;;;;;;;;;;22.80;46.90;;;;;;5115961;28;20005;-58
2023/11/04 06:52:44;;;;;;;;;;;22.80;46.80;;;;;;5116162;28;20379;-57
2023/11/04 06:55:11;;;;;;;;;;;22.80;46.70;;;;;;5115792;28;20372;-57
2023/11/04 06:57:39;;;;;;;;;;;22.80;46.60;;;;;;5115390;28;19953;-57
2023/11/04 07:00:08;;;;;;;;;;;22.80;46.60;;;;;;5115857;28;19989;-57
2023/11/04 07:02:35;;;;;;;;;;;22.80;46.50;;;;;;5115335;28;20391;-57
2023/11/04 07:05:02;;;;;;;;;;;22.80;46.50;;;;;;5115614;28;19959;-56
2023/11/04 07:07:30;;;;;;;;;;;22.90;46.40;;;;;;5115243;28;20363;-57
2023/11/04 07:09:57;;;;;;;;;;;22.90;46.40;;;;;;5115432;28;19927;-58
2023/11/04 07:12:24;;;;;;;;;;;22.90;46.40;;;;;;5115449;28;19935;-57
2023/11/04 07:14:51;;;;;;;;;;;22.90;46.30;;;;;;5097356;28;19969;-58
2023/11/04 07:17:18;;;;;;;;;;;22.90;46.30;;;;;;5115045;28;19923;-59
2023/11/04 07:19:45;;;;;;;;;;;22.90;46.30;;;;;;5115124;28;20341;-57
2023/11/04 07:22:13;;;;;;;;;;;22.90;46.30;;;;;;5097469;28;20137;-58
2023/11/04 07:24:42;;;;;;;;;;;22.90;46.30;;;;;;5115200;28;19970;-57
2023/11/04 07:27:09;;;;;;;;;;;22.80;46.20;;;;;;5114445;28;19924;-58
2023/11/04 07:29:36;;;;;;;;;;;22.90;46.30;;;;;;5115155;28;20318;-57
2023/11/04 07:32:04;;;;;;;;;;;22.90;46.20;;;;;;5114886;28;20431;-57
2023/11/04 07:34:33;;;;;;;;;;;22.90;46.20;;;;;;5114960;28;19924;-58
2023/11/04 07:37:00;;;;;;;;;;;22.90;46.20;;;;;;5114795;28;19971;-58
2023/11/04 07:39:28;;;;;;;;;;;22.90;46.20;;;;;;5096077;28;20372;-58
2023/11/04 07:41:56;;;;;;;;;;;22.90;46.10;;;;;;5114965;28;20360;-57
2023/11/04 07:44:23;;;;;;;;;;;23.00;46.10;;;;;;5114785;28;19923;-59
2023/11/04 07:46:51;;;;;;;;;;;22.90;46.10;;;;;;5114701;28;19938;-57
2023/11/04 07:49:18;;;;;;;;;;;23.00;46.00;;;;;;5114954;28;19928;-57
2023/11/04 07:51:45;;;;;;;;;;;23.00;45.90;;;;;;5114896;28;20021;-58
2023/11/04 07:54:12;;;;;;;;;;;23.00;45.80;;;;;;5114674;28;19930;-58
2023/11/04 07:56:39;;;;;;;;;;;23.10;45.80;;;;;;5114399;28;19924;-58
2023/11/04 07:59:06;;;;;;;;;;;23.10;45.70;;;;;;5114441;28;19924;-58
2023/11/04 08:01:33;;;;;;;;;;;23.10;45.60;;;;;;5114651;28;19971;-58
2023/11/04 08:04:00;;;;;;;;;;;23.20;45.60;;;;;;5114101;28;19953;-59
2023/11/04 08:06:28;;;;;;;;;;;23.20;45.50;;;;;;5114070;28;19924;-58
2023/11/04 08:08:55;;;;;;;;;;;23.30;45.40;;;;;;5079466;28;19974;-58
2023/11/04 08:11:22;;;;;;;;;;;23.30;45.40;;;;;;5114088;28;19968;-59
2023/11/04 08:13:50;;;;;;;;;;;23.30;45.20;;;;;;5114212;28;19924;-59
2023/11/04 08:16:20;;;;;;;;;;;23.40;45.10;;;;;;5114018;28;19985;-59
2023/11/04 08:18:47;;;;;;;;;;;23.40;45.10;;;;;;5113414;28;19927;-58
2023/11/04 08:21:15;;;;;;;;;;;23.40;44.90;;;;;;5114230;27;20403;-57
2023/11/04 08:23:43;;;;;;;;;;;23.40;44.80;;;;;;5112973;28;20307;-56
2023/11/04 08:26:10;;;;;;;;;;;23.50;44.80;;;;;;5116166;27;19982;-57
2023/11/04 08:28:37;;;;;;;;;;;23.50;44.70;;;;;;5132795;27;20006;-57
2023/11/04 08:31:04;;;;;;;;;;;23.50;44.60;;;;;;5113568;27;19931;-58
2023/11/04 08:33:32;;;;;;;;;;;23.50;44.60;;;;;;5134409;27;19971;-59
2023/11/04 08:35:59;;;;;;;;;;;23.50;44.60;;;;;;5134197;27;19930;-58
2023/11/04 08:38:26;;;;;;;;;;;23.50;44.50;;;;;;5134375;27;20295;-57
2023/11/04 08:40:54;;;;;;;;;;;23.60;44.50;;;;;;5117262;27;19927;-57
2023/11/04 08:43:21;;;;;;;;;;;23.60;44.50;;;;;;5113039;28;19930;-58
2023/11/04 08:45:48;;;;;;;;;;;23.60;44.40;;;;;;5094907;28;19974;-57
2023/11/04 08:48:15;;;;;;;;;;;23.60;44.40;;;;;;5113633;28;19953;-58
2023/11/04 08:50:43;;;;;;;;;;;23.60;44.40;;;;;;5113737;28;19924;-57
2023/11/04 08:53:10;;;;;;;;;;;23.60;44.30;;;;;;5112994;28;19927;-57
2023/11/04 08:55:37;;;;;;;;;;;23.60;44.30;;;;;;5113442;28;19924;-57
2023/11/04 08:58:04;;;;;;;;;;;23.60;44.20;;;;;;5113480;28;19924;-57
2023/11/04 09:00:31;;;;;;;;;;;23.70;44.30;;;;;;5113438;28;19930;-57
2023/11/04 09:03:01;;;;;;;;;;;23.70;44.30;;;;;;5113438;28;19923;-57
2023/11/04 09:05:28;;;;;;;;;;;23.70;44.20;;;;;;5117534;28;19923;-58
2023/11/04 09:08:00;;;;;;;;;;;23.70;44.30;;;;;;5117911;28;20353;-57
2023/11/04 09:10:27;;;;;;;;;;;23.70;44.20;;;;;;5113150;28;19931;-57
2023/11/04 09:12:55;;;;;;;;;;;23.70;44.20;;;;;;5113683;28;20103;-57
2023/11/04 09:15:22;;;;;;;;;;;23.70;44.30;;;;;;5112832;28;20010;-57
2023/11/04 09:17:49;;;;;;;;;;;23.70;44.00;;;;;;5095205;28;19927;-57
2023/11/04 09:20:16;;;;;;;;;;;23.70;44.00;;;;;;5104851;28;20383;-57
2023/11/04 09:22:44;;;;;;;;;;;23.70;43.90;;;;;;5113551;28;20372;-58
2023/11/04 09:25:11;;;;;;;;;;;23.80;43.90;;;;;;5104702;28;19932;-57
2023/11/04 09:27:38;;;;;;;;;;;23.80;43.80;;;;;;5128036;27;19930;-57
2023/11/04 09:30:07;;;;;;;;;;;23.80;44.30;;;;;;5133545;28;19974;-57
2023/11/04 09:32:34;;;;;;;;;;;23.80;43.60;;;;;;5133846;27;19963;-57
2023/11/04 09:35:02;;;;;;;;;;;23.90;43.60;;;;;;5133943;28;20326;-57
2023/11/04 09:37:30;;;;;;;;;;;23.90;43.50;;;;;;5134026;28;21770;-58
2023/11/04 09:39:57;;;;;;;;;;;23.90;43.40;;;;;;5115549;28;19923;-58
2023/11/04 09:42:27;;;;;;;;;;;23.90;43.30;;;;;;5133092;27;20398;-57
2023/11/04 09:44:54;;;;;;;;;;;24.00;43.20;;;;;;5130970;28;19923;-58
2023/11/04 09:47:21;;;;;;;;;;;24.00;43.20;;;;;;5132360;27;19927;-57
2023/11/04 09:49:48;;;;;;;;;;;24.00;43.10;;;;;;5134075;27;19928;-58
2023/11/04 09:52:16;;;;;;;;;;;24.10;43.00;;;;;;5137466;27;19923;-57
2023/11/04 09:54:46;;;;;;;;;;;24.10;43.00;;;;;;5137756;27;19947;-58
2023/11/04 09:57:14;;;;;;;;;;;24.10;42.90;;;;;;5131068;27;19976;-58
2023/11/04 09:59:41;;;;;;;;;;;24.10;42.90;;;;;;5115492;28;20408;-58
2023/11/04 10:02:12;;;;;;;;;;;24.10;42.80;;;;;;5116921;28;19923;-59
2023/11/04 10:04:39;;;;;;;;;;;24.10;42.80;;;;;;5116781;28;19923;-59
2023/11/04 10:07:06;;;;;;;;;;;24.20;42.70;;;;;;5116730;28;19969;-59
2023/11/04 10:09:34;;;;;;;;;;;24.20;42.60;;;;;;5116988;28;20264;-59
2023/11/04 10:12:03;;;;;;;;;;;24.20;42.60;;;;;;5113362;28;19923;-59
2023/11/04 10:14:30;;;;;;;;;;;24.20;42.50;;;;;;5116074;28;19982;-59
2023/11/04 10:16:57;;;;;;;;;;;24.20;42.50;;;;;;5116562;28;19924;-59
2023/11/04 10:19:24;;;;;;;;;;;24.20;42.50;;;;;;5116365;28;19997;-59
2023/11/04 10:21:52;;;;;;;;;;;24.20;42.50;;;;;;5099909;28;19947;-59
2023/11/04 10:24:21;;;;;;;;;;;24.30;42.50;;;;;;5095980;28;20015;-59
2023/11/04 10:26:48;;;;;;;;;;;24.30;42.40;;;;;;5116103;28;19924;-57
2023/11/04 10:29:15;;;;;;;;;;;24.30;42.40;;;;;;5116234;28;19928;-59
2023/11/04 10:31:42;;;;;;;;;;;24.30;42.20;;;;;;5116139;28;19931;-58
2023/11/04 10:34:11;;;;;;;;;;;24.30;42.20;;;;;;5116146;28;19924;-59
2023/11/04 10:36:39;;;;;;;;;;;24.40;42.20;;;;;;5116328;28;19930;-57
2023/11/04 10:39:08;;;;;;;;;;;24.40;42.10;;;;;;5116064;28;19924;-59
2023/11/04 10:41:56;;;;;;;;;;;24.40;42.10;;;;;;5113887;28;19997;-57
2023/11/04 10:44:32;;;;;;;;;;;24.40;42.00;;;;;;5113459;28;19977;-57
2023/11/04 10:47:08;;;;;;;;;;;24.40;41.90;;;;;;5105240;27;19959;-58
2023/11/04 10:49:56;;;;;;;;;;;24.40;41.90;;;;;;5114415;28;19924;-59
2023/11/04 10:52:25;;;;;;;;;;;24.40;41.90;;;;;;5115879;28;20367;-57
2023/11/04 10:55:08;;;;;;;;;;;24.40;41.90;;;;;;5097680;28;19923;-57
2023/11/04 10:57:42;;;;;;;;;;;24.40;41.90;;;;;;5115750;28;20329;-57
2023/11/04 11:00:13;;;;;;;;;;;24.40;41.80;;;;;;5115840;28;20329;-57
2023/11/04 11:02:43;;;;;;;;;;;24.30;41.80;;;;;;5114445;28;19923;-58
2023/11/04 11:05:11;;;;;;;;;;;24.30;41.80;;;;;;5115577;28;19963;-57
2023/11/04 11:07:45;;;;;;;;;;;24.30;41.90;;;;;;5115542;28;20329;-57
2023/11/04 11:10:13;;;;;;;;;;;24.30;41.90;;;;;;5115473;28;19927;-57
2023/11/04 11:12:43;;;;;;;;;;;24.30;41.90;;;;;;5115495;28;19924;-58
2023/11/04 11:15:11;;;;;;;;;;;24.30;41.90;;;;;;5115472;28;20010;-58
2023/11/04 11:17:38;;;;;;;;;;;24.30;41.90;;;;;;5115100;28;19924;-57
2023/11/04 11:20:09;;;;;;;;;;;24.30;41.90;;;;;;5096988;28;19973;-58
2023/11/04 11:22:36;;;;;;;;;;;24.20;41.90;;;;;;5115088;28;19924;-58
2023/11/04 11:25:05;;;;;;;;;;;24.20;41.90;;;;;;5096844;28;21318;-58
2023/11/04 11:27:32;;;;;;;;;;;24.20;41.90;;;;;;5115472;28;20022;-58
2023/11/04 11:30:03;;;;;;;;;;;24.20;42.00;;;;;;5114921;28;19954;-58
2023/11/04 11:32:34;;;;;;;;;;;24.20;41.90;;;;;;5115059;28;19935;-57
2023/11/04 11:35:04;;;;;;;;;;;24.20;41.90;;;;;;5115518;28;19931;-58
2023/11/04 11:37:31;;;;;;;;;;;24.20;41.90;;;;;;5097158;28;20389;-58
2023/11/04 11:39:58;;;;;;;;;;;24.20;41.90;;;;;;5111002;28;19924;-58
2023/11/04 11:42:25;;;;;;;;;;;24.30;41.90;;;;;;5113727;28;19923;-58
2023/11/04 11:44:54;;;;;;;;;;;24.30;41.90;;;;;;5115216;28;19930;-58
2023/11/04 11:47:22;;;;;;;;;;;24.30;41.80;;;;;;5114625;28;19924;-57
2023/11/04 11:49:49;;;;;;;;;;;24.30;41.80;;;;;;5114993;28;19924;-58
2023/11/04 11:52:16;;;;;;;;;;;24.30;41.70;;;;;;5114610;28;19928;-58
2023/11/04 11:54:44;;;;;;;;;;;24.30;41.70;;;;;;5114593;28;19924;-58
2023/11/04 11:57:11;;;;;;;;;;;24.40;41.70;;;;;;5097025;28;19989;-57
2023/11/04 11:59:39;;;;;;;;;;;24.40;41.60;;;;;;5096944;28;19924;-58
2023/11/04 12:02:07;;;;;;;;;;;24.40;41.70;;;;;;5114430;28;19923;-57
2023/11/04 12:04:35;;;;;;;;;;;24.40;41.60;;;;;;5114665;28;19966;-58
2023/11/04 12:07:02;;;;;;;;;;;24.40;41.50;;;;;;5110643;27;20290;-57
2023/11/04 12:09:30;;;;;;;;;;;24.40;41.50;;;;;;5111827;28;19923;-58
2023/11/04 12:11:57;;;;;;;;;;;24.40;41.40;;;;;;5114734;27;19966;-58
2023/11/04 12:14:24;;;;;;;;;;;24.40;41.30;;;;;;5113449;28;20368;-58
2023/11/04 12:16:51;;;;;;;;;;;24.50;41.30;;;;;;5114458;28;19946;-58
2023/11/04 12:19:19;;;;;;;;;;;24.50;41.30;;;;;;5114491;28;19924;-58
2023/11/04 12:21:46;;;;;;;;;;;24.50;41.20;;;;;;5113822;28;19928;-58
2023/11/04 12:24:13;;;;;;;;;;;24.50;41.20;;;;;;5113975;28;19928;-58
2023/11/04 12:26:41;;;;;;;;;;;24.50;41.20;;;;;;5114308;28;19985;-58
2023/11/04 12:29:09;;;;;;;;;;;24.50;41.20;;;;;;5101306;28;19943;-60
2023/11/04 12:31:37;;;;;;;;;;;24.50;41.10;;;;;;5104591;28;19934;-58
2023/11/04 12:34:05;;;;;;;;;;;24.50;41.10;;;;;;5112837;28;19984;-59
2023/11/04 12:36:32;;;;;;;;;;;24.50;41.00;;;;;;5113128;28;19931;-59
2023/11/04 12:38:59;;;;;;;;;;;24.50;40.90;;;;;;5107305;28;20317;-59
2023/11/04 12:41:27;;;;;;;;;;;24.60;40.90;;;;;;5113047;28;19924;-59
2023/11/04 12:43:55;;;;;;;;;;;24.60;40.80;;;;;;5111592;28;20022;-58
2023/11/04 12:46:22;;;;;;;;;;;24.60;40.80;;;;;;5113678;28;19930;-59
2023/11/04 12:48:49;;;;;;;;;;;24.60;40.80;;;;;;5112551;28;19965;-59
2023/11/04 12:51:18;;;;;;;;;;;24.60;40.80;;;;;;5110847;28;20395;-59
2023/11/04 12:53:45;;;;;;;;;;;24.60;40.80;;;;;;5110622;28;20268;-59
2023/11/04 12:56:12;;;;;;;;;;;24.60;40.80;;;;;;5084628;28;20329;-60
2023/11/04 12:58:42;;;;;;;;;;;24.50;41.40;;;;;;5112005;28;19924;-59
2023/11/04 13:01:09;;;;;;;;;;;24.50;40.90;;;;;;5102982;28;20288;-57
2023/11/04 13:03:37;;;;;;;;;;;24.50;40.90;;;;;;5110406;28;19928;-59
2023/11/04 13:06:05;;;;;;;;;;;24.50;40.90;;;;;;5113419;28;19931;-59
2023/11/04 13:08:32;;;;;;;;;;;24.50;40.90;;;;;;5110746;28;19924;-59
2023/11/04 13:10:59;;;;;;;;;;;24.50;41.00;;;;;;5112571;28;19924;-58
2023/11/04 13:13:26;;;;;;;;;;;24.50;40.90;;;;;;5111461;28;19932;-59
2023/11/04 13:15:53;;;;;;;;;;;24.40;40.90;;;;;;5109269;28;20335;-58
2023/11/04 13:18:20;;;;;;;;;;;24.40;40.90;;;;;;5086462;28;19931;-58
2023/11/04 13:20:47;;;;;;;;;;;24.40;40.90;;;;;;5107387;28;19931;-58
2023/11/04 13:23:15;;;;;;;;;;;24.40;40.90;;;;;;5093231;28;19924;-58
2023/11/04 13:25:45;;;;;;;;;;;24.40;40.90;;;;;;5110183;27;20311;-58
2023/11/04 13:28:12;;;;;;;;;;;24.40;40.90;;;;;;5116952;28;20030;-58
2023/11/04 13:30:39;;;;;;;;;;;24.40;40.80;;;;;;5112850;28;20363;-58
2023/11/04 13:33:07;;;;;;;;;;;24.40;40.80;;;;;;5113406;27;19931;-58
2023/11/04 13:35:35;;;;;;;;;;;24.40;40.90;;;;;;5115670;28;20383;-58
2023/11/04 13:38:02;;;;;;;;;;;24.40;40.90;;;;;;5116737;28;19978;-58
2023/11/04 13:40:29;;;;;;;;;;;24.40;40.90;;;;;;5117633;28;19924;-59
2023/11/04 13:42:56;;;;;;;;;;;24.40;40.90;;;;;;5117383;28;19924;-58
2023/11/04 13:45:24;;;;;;;;;;;24.40;40.90;;;;;;5115020;27;19951;-59
2023/11/04 13:47:51;;;;;;;;;;;24.40;40.80;;;;;;5113581;28;19928;-59
2023/11/04 13:50:22;;;;;;;;;;;24.30;40.80;;;;;;5111948;28;20375;-59
2023/11/04 13:52:49;;;;;;;;;;;24.40;40.80;;;;;;5116597;28;19928;-58
2023/11/04 13:55:16;;;;;;;;;;;24.40;40.80;;;;;;5114631;28;19952;-59
2023/11/04 13:57:44;;;;;;;;;;;24.40;40.80;;;;;;5117233;28;19929;-59
2023/11/04 14:00:12;;;;;;;;;;;24.40;40.80;;;;;;5111937;27;20399;-59
2023/11/04 14:02:39;;;;;;;;;;;24.40;40.80;;;;;;5106354;28;19977;-58
2023/11/04 14:05:07;;;;;;;;;;;24.30;40.70;;;;;;5108711;27;19928;-58
2023/11/04 14:07:34;;;;;;;;;;;24.30;40.90;;;;;;5092479;28;19927;-59
2023/11/04 14:10:02;;;;;;;;;;;24.30;41.10;;;;;;5095951;28;19931;-59
2023/11/04 14:12:29;;;;;;;;;;;24.30;41.10;;;;;;5116828;28;19924;-58
2023/11/04 14:14:56;;;;;;;;;;;24.30;41.20;;;;;;5115447;28;20206;-58
2023/11/04 14:17:23;;;;;;;;;;;24.30;41.20;;;;;;5095797;28;19927;-58
2023/11/04 14:19:50;;;;;;;;;;;24.30;41.30;;;;;;5107455;28;19960;-58